sensor_id;sensor_type;location;lat;lon;timestamp;P1;durP1;ratioP1;P2;durP2;ratioP2
29370;SDS011;16357;52.188;7.838;2023-03-03T00:00:01;49.65;;;25.25;;
29370;SDS011;16357;52.188;7.838;2023-03-03T00:02:28;46.60;;;24.20;;
29370;SDS011;16357;52.188;7.838;2023-03-03T00:04:55;51.05;;;24.45;;
29370;SDS011;16357;52.188;7.838;2023-03-03T00:07:21;50.55;;;25.17;;
29370;SDS011;16357;52.188;7.838;2023-03-03T00:09:48;47.95;;;25.35;;
29370;SDS011;16357;52.188;7.838;2023-03-03T00:12:28;50.08;;;26.15;;
29370;SDS011;16357;52.188;7.838;2023-03-03T00:14:56;49.70;;;25.10;;
29370;SDS011;16357;52.188;7.838;2023-03-03T00:17:23;51.00;;;25.92;;
29370;SDS011;16357;52.188;7.838;2023-03-03T00:19:51;54.55;;;26.38;;
29370;SDS011;16357;52.188;7.838;2023-03-03T00:22:32;47.03;;;25.00;;
29370;SDS011;16357;52.188;7.838;2023-03-03T00:27:52;48.80;;;23.70;;
29370;SDS011;16357;52.188;7.838;2023-03-03T00:30:27;47.80;;;24.75;;
29370;SDS011;16357;52.188;7.838;2023-03-03T00:35:25;46.47;;;21.05;;
29370;SDS011;16357;52.188;7.838;2023-03-03T00:38:01;49.67;;;23.63;;
29370;SDS011;16357;52.188;7.838;2023-03-03T00:40:38;49.10;;;21.92;;
29370;SDS011;16357;52.188;7.838;2023-03-03T00:43:27;50.88;;;23.00;;
29370;SDS011;16357;52.188;7.838;2023-03-03T00:45:57;49.05;;;23.48;;
29370;SDS011;16357;52.188;7.838;2023-03-03T00:48:25;42.92;;;21.17;;
29370;SDS011;16357;52.188;7.838;2023-03-03T00:51:09;43.72;;;22.33;;
29370;SDS011;16357;52.188;7.838;2023-03-03T00:56:15;47.25;;;21.55;;
29370;SDS011;16357;52.188;7.838;2023-03-03T00:58:41;45.85;;;22.25;;
29370;SDS011;16357;52.188;7.838;2023-03-03T01:01:10;46.45;;;23.83;;
29370;SDS011;16357;52.188;7.838;2023-03-03T01:03:37;45.35;;;22.20;;
29370;SDS011;16357;52.188;7.838;2023-03-03T01:06:03;48.95;;;23.65;;
29370;SDS011;16357;52.188;7.838;2023-03-03T01:08:30;53.47;;;24.58;;
29370;SDS011;16357;52.188;7.838;2023-03-03T01:10:58;50.58;;;24.17;;
29370;SDS011;16357;52.188;7.838;2023-03-03T01:13:29;48.53;;;22.30;;
29370;SDS011;16357;52.188;7.838;2023-03-03T01:15:58;49.92;;;23.13;;
29370;SDS011;16357;52.188;7.838;2023-03-03T01:18:26;47.47;;;23.05;;
29370;SDS011;16357;52.188;7.838;2023-03-03T01:20:53;47.67;;;21.63;;
29370;SDS011;16357;52.188;7.838;2023-03-03T01:23:19;45.67;;;22.15;;
29370;SDS011;16357;52.188;7.838;2023-03-03T01:25:46;44.20;;;22.13;;
29370;SDS011;16357;52.188;7.838;2023-03-03T01:28:12;48.25;;;21.77;;
29370;SDS011;16357;52.188;7.838;2023-03-03T01:30:38;49.03;;;23.05;;
29370;SDS011;16357;52.188;7.838;2023-03-03T01:33:05;49.80;;;22.05;;
29370;SDS011;16357;52.188;7.838;2023-03-03T01:35:31;48.70;;;21.65;;
29370;SDS011;16357;52.188;7.838;2023-03-03T01:37:58;50.55;;;21.98;;
29370;SDS011;16357;52.188;7.838;2023-03-03T01:40:26;61.78;;;24.17;;
29370;SDS011;16357;52.188;7.838;2023-03-03T01:42:53;56.95;;;24.83;;
29370;SDS011;16357;52.188;7.838;2023-03-03T01:48:03;54.78;;;25.05;;
29370;SDS011;16357;52.188;7.838;2023-03-03T01:50:43;62.13;;;25.13;;
29370;SDS011;16357;52.188;7.838;2023-03-03T01:53:23;53.05;;;22.73;;
29370;SDS011;16357;52.188;7.838;2023-03-03T01:55:55;62.72;;;26.33;;
29370;SDS011;16357;52.188;7.838;2023-03-03T01:58:24;70.22;;;27.40;;
29370;SDS011;16357;52.188;7.838;2023-03-03T02:00:54;61.78;;;26.23;;
29370;SDS011;16357;52.188;7.838;2023-03-03T02:03:25;65.47;;;27.15;;
29370;SDS011;16357;52.188;7.838;2023-03-03T02:05:54;71.57;;;28.70;;
29370;SDS011;16357;52.188;7.838;2023-03-03T02:09:31;74.30;;;29.40;;
29370;SDS011;16357;52.188;7.838;2023-03-03T02:11:27;76.25;;;28.63;;
29370;SDS011;16357;52.188;7.838;2023-03-03T02:13:56;71.95;;;28.52;;
29370;SDS011;16357;52.188;7.838;2023-03-03T02:16:22;69.07;;;26.42;;
29370;SDS011;16357;52.188;7.838;2023-03-03T02:18:49;64.22;;;26.17;;
29370;SDS011;16357;52.188;7.838;2023-03-03T02:21:17;66.32;;;26.67;;
29370;SDS011;16357;52.188;7.838;2023-03-03T02:26:31;65.55;;;25.65;;
29370;SDS011;16357;52.188;7.838;2023-03-03T02:29:00;67.13;;;26.85;;
29370;SDS011;16357;52.188;7.838;2023-03-03T02:31:28;66.05;;;26.85;;
29370;SDS011;16357;52.188;7.838;2023-03-03T02:33:56;64.85;;;24.20;;
29370;SDS011;16357;52.188;7.838;2023-03-03T02:36:24;58.92;;;23.52;;
29370;SDS011;16357;52.188;7.838;2023-03-03T02:41:42;45.45;;;19.95;;
29370;SDS011;16357;52.188;7.838;2023-03-03T02:44:30;44.78;;;19.98;;
29370;SDS011;16357;52.188;7.838;2023-03-03T02:46:57;44.08;;;20.38;;
29370;SDS011;16357;52.188;7.838;2023-03-03T02:49:26;47.92;;;19.25;;
29370;SDS011;16357;52.188;7.838;2023-03-03T02:51:56;45.97;;;19.83;;
29370;SDS011;16357;52.188;7.838;2023-03-03T02:54:23;41.50;;;18.67;;
29370;SDS011;16357;52.188;7.838;2023-03-03T02:56:50;37.75;;;18.00;;
29370;SDS011;16357;52.188;7.838;2023-03-03T02:59:17;38.42;;;17.58;;
29370;SDS011;16357;52.188;7.838;2023-03-03T03:01:45;38.55;;;16.98;;
29370;SDS011;16357;52.188;7.838;2023-03-03T03:04:13;37.28;;;17.67;;
29370;SDS011;16357;52.188;7.838;2023-03-03T03:06:44;36.20;;;16.92;;
29370;SDS011;16357;52.188;7.838;2023-03-03T03:09:11;34.50;;;16.23;;
29370;SDS011;16357;52.188;7.838;2023-03-03T03:11:39;29.80;;;15.07;;
29370;SDS011;16357;52.188;7.838;2023-03-03T03:14:06;30.13;;;15.10;;
29370;SDS011;16357;52.188;7.838;2023-03-03T03:16:34;28.95;;;14.95;;
29370;SDS011;16357;52.188;7.838;2023-03-03T03:19:01;31.20;;;14.43;;
29370;SDS011;16357;52.188;7.838;2023-03-03T03:21:29;30.77;;;14.98;;
29370;SDS011;16357;52.188;7.838;2023-03-03T03:23:55;31.10;;;14.27;;
29370;SDS011;16357;52.188;7.838;2023-03-03T03:26:22;31.00;;;15.23;;
29370;SDS011;16357;52.188;7.838;2023-03-03T03:28:49;30.30;;;14.85;;
29370;SDS011;16357;52.188;7.838;2023-03-03T03:31:17;32.75;;;15.00;;
29370;SDS011;16357;52.188;7.838;2023-03-03T03:33:44;32.70;;;15.38;;
29370;SDS011;16357;52.188;7.838;2023-03-03T03:36:10;29.25;;;14.50;;
29370;SDS011;16357;52.188;7.838;2023-03-03T03:38:37;30.25;;;14.60;;
29370;SDS011;16357;52.188;7.838;2023-03-03T03:41:04;32.40;;;14.45;;
29370;SDS011;16357;52.188;7.838;2023-03-03T03:43:31;30.13;;;13.95;;
29370;SDS011;16357;52.188;7.838;2023-03-03T03:45:58;31.50;;;14.75;;
29370;SDS011;16357;52.188;7.838;2023-03-03T03:48:25;33.75;;;16.13;;
29370;SDS011;16357;52.188;7.838;2023-03-03T03:50:52;32.22;;;15.23;;
29370;SDS011;16357;52.188;7.838;2023-03-03T03:53:18;32.85;;;16.08;;
29370;SDS011;16357;52.188;7.838;2023-03-03T03:55:44;32.60;;;16.33;;
29370;SDS011;16357;52.188;7.838;2023-03-03T03:58:12;34.13;;;14.98;;
29370;SDS011;16357;52.188;7.838;2023-03-03T04:00:40;32.03;;;15.45;;
29370;SDS011;16357;52.188;7.838;2023-03-03T04:03:07;34.53;;;16.10;;
29370;SDS011;16357;52.188;7.838;2023-03-03T04:05:34;38.13;;;16.42;;
29370;SDS011;16357;52.188;7.838;2023-03-03T04:08:01;31.95;;;15.65;;
29370;SDS011;16357;52.188;7.838;2023-03-03T04:10:28;35.88;;;15.95;;
29370;SDS011;16357;52.188;7.838;2023-03-03T04:12:54;32.50;;;15.20;;
29370;SDS011;16357;52.188;7.838;2023-03-03T04:15:21;29.17;;;14.75;;
29370;SDS011;16357;52.188;7.838;2023-03-03T04:17:47;33.70;;;15.60;;
29370;SDS011;16357;52.188;7.838;2023-03-03T04:20:14;30.85;;;15.60;;
29370;SDS011;16357;52.188;7.838;2023-03-03T04:22:41;33.97;;;15.25;;
29370;SDS011;16357;52.188;7.838;2023-03-03T04:25:10;28.02;;;14.73;;
29370;SDS011;16357;52.188;7.838;2023-03-03T04:27:39;31.45;;;14.20;;
29370;SDS011;16357;52.188;7.838;2023-03-03T04:30:06;32.33;;;15.13;;
29370;SDS011;16357;52.188;7.838;2023-03-03T04:32:33;35.35;;;15.45;;
29370;SDS011;16357;52.188;7.838;2023-03-03T04:34:59;30.23;;;14.77;;
29370;SDS011;16357;52.188;7.838;2023-03-03T04:37:34;31.77;;;15.82;;
29370;SDS011;16357;52.188;7.838;2023-03-03T04:40:01;31.73;;;15.57;;
29370;SDS011;16357;52.188;7.838;2023-03-03T04:42:28;34.92;;;15.35;;
29370;SDS011;16357;52.188;7.838;2023-03-03T04:44:55;34.75;;;16.40;;
29370;SDS011;16357;52.188;7.838;2023-03-03T04:47:21;35.30;;;17.45;;
29370;SDS011;16357;52.188;7.838;2023-03-03T04:49:48;38.95;;;16.73;;
29370;SDS011;16357;52.188;7.838;2023-03-03T04:52:14;35.97;;;16.77;;
29370;SDS011;16357;52.188;7.838;2023-03-03T04:54:40;31.60;;;15.32;;
29370;SDS011;16357;52.188;7.838;2023-03-03T04:57:07;37.35;;;16.77;;
29370;SDS011;16357;52.188;7.838;2023-03-03T04:59:34;34.80;;;16.20;;
29370;SDS011;16357;52.188;7.838;2023-03-03T05:02:01;41.25;;;17.80;;
29370;SDS011;16357;52.188;7.838;2023-03-03T05:04:30;33.20;;;16.15;;
29370;SDS011;16357;52.188;7.838;2023-03-03T05:06:57;32.45;;;15.45;;
29370;SDS011;16357;52.188;7.838;2023-03-03T05:09:23;33.92;;;16.17;;
29370;SDS011;16357;52.188;7.838;2023-03-03T05:11:50;41.63;;;18.20;;
29370;SDS011;16357;52.188;7.838;2023-03-03T05:14:16;43.53;;;18.30;;
29370;SDS011;16357;52.188;7.838;2023-03-03T05:16:43;38.88;;;17.30;;
29370;SDS011;16357;52.188;7.838;2023-03-03T05:19:10;35.78;;;16.65;;
29370;SDS011;16357;52.188;7.838;2023-03-03T05:21:36;37.50;;;17.25;;
29370;SDS011;16357;52.188;7.838;2023-03-03T05:24:10;35.88;;;17.05;;
29370;SDS011;16357;52.188;7.838;2023-03-03T05:26:39;36.85;;;16.85;;
29370;SDS011;16357;52.188;7.838;2023-03-03T05:29:06;37.55;;;17.15;;
29370;SDS011;16357;52.188;7.838;2023-03-03T05:31:34;36.88;;;17.70;;
29370;SDS011;16357;52.188;7.838;2023-03-03T05:34:00;37.88;;;17.40;;
29370;SDS011;16357;52.188;7.838;2023-03-03T05:36:27;37.38;;;17.60;;
29370;SDS011;16357;52.188;7.838;2023-03-03T05:38:53;37.10;;;16.63;;
29370;SDS011;16357;52.188;7.838;2023-03-03T05:41:20;40.50;;;17.45;;
29370;SDS011;16357;52.188;7.838;2023-03-03T05:43:46;37.03;;;17.65;;
29370;SDS011;16357;52.188;7.838;2023-03-03T05:46:13;40.00;;;18.10;;
29370;SDS011;16357;52.188;7.838;2023-03-03T05:48:40;36.85;;;17.25;;
29370;SDS011;16357;52.188;7.838;2023-03-03T05:51:07;45.88;;;19.42;;
29370;SDS011;16357;52.188;7.838;2023-03-03T05:53:33;36.95;;;17.17;;
29370;SDS011;16357;52.188;7.838;2023-03-03T05:56:00;40.28;;;17.45;;
29370;SDS011;16357;52.188;7.838;2023-03-03T05:58:26;33.20;;;16.08;;
29370;SDS011;16357;52.188;7.838;2023-03-03T06:00:53;37.17;;;17.15;;
29370;SDS011;16357;52.188;7.838;2023-03-03T06:03:19;38.65;;;16.95;;
29370;SDS011;16357;52.188;7.838;2023-03-03T06:05:46;34.67;;;16.67;;
29370;SDS011;16357;52.188;7.838;2023-03-03T06:08:12;36.38;;;16.73;;
29370;SDS011;16357;52.188;7.838;2023-03-03T06:10:39;39.08;;;17.70;;
29370;SDS011;16357;52.188;7.838;2023-03-03T06:13:05;38.13;;;17.55;;
29370;SDS011;16357;52.188;7.838;2023-03-03T06:15:32;33.15;;;16.13;;
29370;SDS011;16357;52.188;7.838;2023-03-03T06:17:59;36.05;;;16.17;;
29370;SDS011;16357;52.188;7.838;2023-03-03T06:20:25;38.38;;;16.63;;
29370;SDS011;16357;52.188;7.838;2023-03-03T06:22:52;35.55;;;16.83;;
29370;SDS011;16357;52.188;7.838;2023-03-03T06:25:18;31.48;;;15.75;;
29370;SDS011;16357;52.188;7.838;2023-03-03T06:27:45;39.25;;;17.50;;
29370;SDS011;16357;52.188;7.838;2023-03-03T06:30:11;35.15;;;16.40;;
29370;SDS011;16357;52.188;7.838;2023-03-03T06:32:38;33.95;;;15.20;;
29370;SDS011;16357;52.188;7.838;2023-03-03T06:35:05;35.65;;;16.85;;
29370;SDS011;16357;52.188;7.838;2023-03-03T06:37:32;37.83;;;16.60;;
29370;SDS011;16357;52.188;7.838;2023-03-03T06:39:59;33.70;;;15.63;;
29370;SDS011;16357;52.188;7.838;2023-03-03T06:42:25;31.00;;;15.77;;
29370;SDS011;16357;52.188;7.838;2023-03-03T06:44:52;36.60;;;16.23;;
29370;SDS011;16357;52.188;7.838;2023-03-03T06:47:18;38.17;;;17.27;;
29370;SDS011;16357;52.188;7.838;2023-03-03T06:49:45;34.83;;;15.95;;
29370;SDS011;16357;52.188;7.838;2023-03-03T06:52:12;34.28;;;15.77;;
29370;SDS011;16357;52.188;7.838;2023-03-03T06:54:48;35.17;;;15.68;;
29370;SDS011;16357;52.188;7.838;2023-03-03T07:00:09;32.88;;;15.38;;
29370;SDS011;16357;52.188;7.838;2023-03-03T07:02:41;30.88;;;13.82;;
29370;SDS011;16357;52.188;7.838;2023-03-03T07:05:14;31.73;;;14.77;;
29370;SDS011;16357;52.188;7.838;2023-03-03T07:07:43;31.25;;;14.40;;
29370;SDS011;16357;52.188;7.838;2023-03-03T07:10:21;34.33;;;15.25;;
29370;SDS011;16357;52.188;7.838;2023-03-03T07:12:53;30.88;;;14.15;;
29370;SDS011;16357;52.188;7.838;2023-03-03T07:15:34;34.38;;;15.05;;
29370;SDS011;16357;52.188;7.838;2023-03-03T07:18:01;35.40;;;16.02;;
29370;SDS011;16357;52.188;7.838;2023-03-03T07:20:32;29.33;;;13.57;;
29370;SDS011;16357;52.188;7.838;2023-03-03T07:23:07;33.80;;;14.85;;
29370;SDS011;16357;52.188;7.838;2023-03-03T07:25:43;30.38;;;14.15;;
29370;SDS011;16357;52.188;7.838;2023-03-03T07:28:24;32.33;;;15.35;;
29370;SDS011;16357;52.188;7.838;2023-03-03T07:30:53;30.65;;;14.30;;
29370;SDS011;16357;52.188;7.838;2023-03-03T07:33:40;30.52;;;14.23;;
29370;SDS011;16357;52.188;7.838;2023-03-03T07:41:50;30.88;;;14.20;;
29370;SDS011;16357;52.188;7.838;2023-03-03T07:44:20;33.30;;;15.52;;
29370;SDS011;16357;52.188;7.838;2023-03-03T07:46:49;30.00;;;15.25;;
29370;SDS011;16357;52.188;7.838;2023-03-03T07:49:21;31.42;;;14.82;;
29370;SDS011;16357;52.188;7.838;2023-03-03T07:51:53;29.20;;;14.52;;
29370;SDS011;16357;52.188;7.838;2023-03-03T07:57:17;30.13;;;15.43;;
29370;SDS011;16357;52.188;7.838;2023-03-03T07:59:46;32.22;;;16.08;;
29370;SDS011;16357;52.188;7.838;2023-03-03T08:03:01;31.92;;;15.65;;
29370;SDS011;16357;52.188;7.838;2023-03-03T08:05:01;32.08;;;15.25;;
29370;SDS011;16357;52.188;7.838;2023-03-03T08:08:01;29.38;;;15.63;;
29370;SDS011;16357;52.188;7.838;2023-03-03T08:10:43;35.95;;;16.15;;
29370;SDS011;16357;52.188;7.838;2023-03-03T08:13:18;33.80;;;16.20;;
29370;SDS011;16357;52.188;7.838;2023-03-03T08:15:49;35.15;;;15.73;;
29370;SDS011;16357;52.188;7.838;2023-03-03T08:18:22;29.40;;;15.20;;
29370;SDS011;16357;52.188;7.838;2023-03-03T08:21:02;32.30;;;15.95;;
29370;SDS011;16357;52.188;7.838;2023-03-03T08:23:41;32.30;;;16.67;;
29370;SDS011;16357;52.188;7.838;2023-03-03T08:26:07;33.88;;;16.73;;
29370;SDS011;16357;52.188;7.838;2023-03-03T08:28:34;40.72;;;18.00;;
29370;SDS011;16357;52.188;7.838;2023-03-03T08:31:01;39.60;;;17.73;;
29370;SDS011;16357;52.188;7.838;2023-03-03T08:33:45;35.60;;;16.95;;
29370;SDS011;16357;52.188;7.838;2023-03-03T08:36:12;35.60;;;16.92;;
29370;SDS011;16357;52.188;7.838;2023-03-03T08:38:38;35.58;;;16.65;;
29370;SDS011;16357;52.188;7.838;2023-03-03T08:41:05;33.65;;;16.83;;
29370;SDS011;16357;52.188;7.838;2023-03-03T08:43:32;36.92;;;17.75;;
29370;SDS011;16357;52.188;7.838;2023-03-03T08:45:59;32.33;;;16.42;;
29370;SDS011;16357;52.188;7.838;2023-03-03T08:48:27;33.38;;;16.58;;
29370;SDS011;16357;52.188;7.838;2023-03-03T08:50:54;39.65;;;17.67;;
29370;SDS011;16357;52.188;7.838;2023-03-03T08:53:21;39.47;;;18.52;;
29370;SDS011;16357;52.188;7.838;2023-03-03T08:55:48;37.67;;;17.92;;
29370;SDS011;16357;52.188;7.838;2023-03-03T08:58:15;35.72;;;17.05;;
29370;SDS011;16357;52.188;7.838;2023-03-03T09:00:44;33.20;;;16.95;;
29370;SDS011;16357;52.188;7.838;2023-03-03T09:03:14;37.28;;;18.02;;
29370;SDS011;16357;52.188;7.838;2023-03-03T09:05:41;38.75;;;17.77;;
29370;SDS011;16357;52.188;7.838;2023-03-03T09:08:07;37.90;;;19.15;;
29370;SDS011;16357;52.188;7.838;2023-03-03T09:10:35;38.03;;;19.08;;
29370;SDS011;16357;52.188;7.838;2023-03-03T09:13:03;41.40;;;18.77;;
29370;SDS011;16357;52.188;7.838;2023-03-03T09:15:36;40.13;;;18.52;;
29370;SDS011;16357;52.188;7.838;2023-03-03T09:25:49;39.00;;;18.38;;
29370;SDS011;16357;52.188;7.838;2023-03-03T09:30:51;35.42;;;17.63;;
29370;SDS011;16357;52.188;7.838;2023-03-03T09:33:21;43.13;;;20.67;;
29370;SDS011;16357;52.188;7.838;2023-03-03T09:35:50;37.75;;;18.58;;
29370;SDS011;16357;52.188;7.838;2023-03-03T09:38:29;44.60;;;20.20;;
29370;SDS011;16357;52.188;7.838;2023-03-03T09:41:08;42.28;;;20.08;;
29370;SDS011;16357;52.188;7.838;2023-03-03T09:44:02;36.95;;;19.02;;
29370;SDS011;16357;52.188;7.838;2023-03-03T10:07:18;45.35;;;20.15;;
29370;SDS011;16357;52.188;7.838;2023-03-03T10:12:26;38.53;;;18.48;;
29370;SDS011;16357;52.188;7.838;2023-03-03T10:18:44;40.53;;;18.58;;
29370;SDS011;16357;52.188;7.838;2023-03-03T10:21:08;39.00;;;18.50;;
29370;SDS011;16357;52.188;7.838;2023-03-03T10:23:55;43.72;;;19.67;;
29370;SDS011;16357;52.188;7.838;2023-03-03T10:30:44;44.83;;;21.58;;
29370;SDS011;16357;52.188;7.838;2023-03-03T10:32:42;46.03;;;20.20;;
29370;SDS011;16357;52.188;7.838;2023-03-03T10:37:50;44.50;;;20.05;;
29370;SDS011;16357;52.188;7.838;2023-03-03T10:40:36;45.88;;;21.60;;
29370;SDS011;16357;52.188;7.838;2023-03-03T11:00:21;39.72;;;18.08;;
29370;SDS011;16357;52.188;7.838;2023-03-03T11:06:21;40.05;;;18.40;;
29370;SDS011;16357;52.188;7.838;2023-03-03T11:08:51;42.90;;;18.42;;
29370;SDS011;16357;52.188;7.838;2023-03-03T11:11:30;42.83;;;18.92;;
29370;SDS011;16357;52.188;7.838;2023-03-03T11:14:05;36.00;;;17.83;;
29370;SDS011;16357;52.188;7.838;2023-03-03T11:19:39;37.42;;;17.38;;
29370;SDS011;16357;52.188;7.838;2023-03-03T11:22:35;39.20;;;18.63;;
29370;SDS011;16357;52.188;7.838;2023-03-03T11:25:24;35.67;;;17.35;;
29370;SDS011;16357;52.188;7.838;2023-03-03T11:27:59;34.08;;;17.52;;
29370;SDS011;16357;52.188;7.838;2023-03-03T11:33:57;40.13;;;18.10;;
29370;SDS011;16357;52.188;7.838;2023-03-03T11:39:45;38.95;;;19.35;;
29370;SDS011;16357;52.188;7.838;2023-03-03T11:45:01;37.05;;;18.75;;
29370;SDS011;16357;52.188;7.838;2023-03-03T11:50:37;39.97;;;19.25;;
29370;SDS011;16357;52.188;7.838;2023-03-03T11:53:41;39.17;;;19.27;;
29370;SDS011;16357;52.188;7.838;2023-03-03T11:56:20;38.08;;;18.27;;
29370;SDS011;16357;52.188;7.838;2023-03-03T11:59:08;42.90;;;20.10;;
29370;SDS011;16357;52.188;7.838;2023-03-03T12:04:22;36.63;;;18.55;;
29370;SDS011;16357;52.188;7.838;2023-03-03T12:13:01;36.35;;;19.13;;
29370;SDS011;16357;52.188;7.838;2023-03-03T12:26:01;32.13;;;16.58;;
29370;SDS011;16357;52.188;7.838;2023-03-03T12:28:40;33.47;;;16.88;;
29370;SDS011;16357;52.188;7.838;2023-03-03T12:31:33;34.72;;;17.92;;
29370;SDS011;16357;52.188;7.838;2023-03-03T12:34:20;31.80;;;16.92;;
29370;SDS011;16357;52.188;7.838;2023-03-03T12:37:03;34.28;;;17.92;;
29370;SDS011;16357;52.188;7.838;2023-03-03T12:39:52;30.70;;;16.58;;
29370;SDS011;16357;52.188;7.838;2023-03-03T12:45:20;32.80;;;16.85;;
29370;SDS011;16357;52.188;7.838;2023-03-03T12:50:46;31.65;;;17.58;;
29370;SDS011;16357;52.188;7.838;2023-03-03T12:58:48;31.73;;;17.27;;
29370;SDS011;16357;52.188;7.838;2023-03-03T13:06:51;27.53;;;16.00;;
29370;SDS011;16357;52.188;7.838;2023-03-03T13:12:29;28.90;;;16.10;;
29370;SDS011;16357;52.188;7.838;2023-03-03T13:17:38;25.08;;;14.48;;
29370;SDS011;16357;52.188;7.838;2023-03-03T13:22:54;26.10;;;14.40;;
29370;SDS011;16357;52.188;7.838;2023-03-03T13:28:25;24.15;;;14.60;;
29370;SDS011;16357;52.188;7.838;2023-03-03T13:31:18;24.30;;;14.40;;
29370;SDS011;16357;52.188;7.838;2023-03-03T13:33:51;24.33;;;15.05;;
29370;SDS011;16357;52.188;7.838;2023-03-03T13:36:22;24.25;;;14.85;;
29370;SDS011;16357;52.188;7.838;2023-03-03T13:41:27;25.85;;;14.90;;
29370;SDS011;16357;52.188;7.838;2023-03-03T13:44:03;25.77;;;15.80;;
29370;SDS011;16357;52.188;7.838;2023-03-03T13:46:40;29.45;;;15.60;;
29370;SDS011;16357;52.188;7.838;2023-03-03T13:49:20;28.92;;;16.73;;
29370;SDS011;16357;52.188;7.838;2023-03-03T13:52:10;26.27;;;15.50;;
29370;SDS011;16357;52.188;7.838;2023-03-03T13:57:52;28.40;;;16.75;;
29370;SDS011;16357;52.188;7.838;2023-03-03T14:03:15;25.05;;;15.27;;
29370;SDS011;16357;52.188;7.838;2023-03-03T14:06:06;25.27;;;15.40;;
29370;SDS011;16357;52.188;7.838;2023-03-03T14:11:18;26.92;;;14.90;;
29370;SDS011;16357;52.188;7.838;2023-03-03T14:16:51;23.40;;;13.82;;
29370;SDS011;16357;52.188;7.838;2023-03-03T14:22:29;24.75;;;14.50;;
29370;SDS011;16357;52.188;7.838;2023-03-03T14:25:12;24.70;;;14.32;;
29370;SDS011;16357;52.188;7.838;2023-03-03T14:27:51;23.48;;;13.48;;
29370;SDS011;16357;52.188;7.838;2023-03-03T14:30:26;23.70;;;14.00;;
29370;SDS011;16357;52.188;7.838;2023-03-03T14:33:02;21.88;;;13.48;;
29370;SDS011;16357;52.188;7.838;2023-03-03T14:35:37;21.73;;;13.43;;
29370;SDS011;16357;52.188;7.838;2023-03-03T14:38:11;22.30;;;13.30;;
29370;SDS011;16357;52.188;7.838;2023-03-03T14:40:41;23.17;;;13.25;;
29370;SDS011;16357;52.188;7.838;2023-03-03T14:43:23;24.00;;;14.27;;
29370;SDS011;16357;52.188;7.838;2023-03-03T14:45:52;20.98;;;12.63;;
29370;SDS011;16357;52.188;7.838;2023-03-03T14:56:52;24.77;;;14.43;;
29370;SDS011;16357;52.188;7.838;2023-03-03T15:01:46;24.73;;;13.95;;
29370;SDS011;16357;52.188;7.838;2023-03-03T15:09:53;23.50;;;13.85;;
29370;SDS011;16357;52.188;7.838;2023-03-03T15:12:25;22.15;;;13.02;;
29370;SDS011;16357;52.188;7.838;2023-03-03T15:17:58;20.45;;;12.60;;
29370;SDS011;16357;52.188;7.838;2023-03-03T15:20:34;21.20;;;11.70;;
29370;SDS011;16357;52.188;7.838;2023-03-03T15:23:13;18.58;;;11.90;;
29370;SDS011;16357;52.188;7.838;2023-03-03T15:26:12;20.98;;;12.30;;
29370;SDS011;16357;52.188;7.838;2023-03-03T15:31:28;20.77;;;12.05;;
29370;SDS011;16357;52.188;7.838;2023-03-03T15:48:00;18.88;;;11.50;;
29370;SDS011;16357;52.188;7.838;2023-03-03T15:53:31;17.95;;;10.68;;
29370;SDS011;16357;52.188;7.838;2023-03-03T15:56:25;16.73;;;10.27;;
29370;SDS011;16357;52.188;7.838;2023-03-03T16:01:33;17.83;;;10.88;;
29370;SDS011;16357;52.188;7.838;2023-03-03T16:04:19;15.43;;;10.35;;
29370;SDS011;16357;52.188;7.838;2023-03-03T16:09:59;15.13;;;10.32;;
29370;SDS011;16357;52.188;7.838;2023-03-03T16:12:41;16.38;;;10.18;;
29370;SDS011;16357;52.188;7.838;2023-03-03T16:15:26;17.55;;;11.00;;
29370;SDS011;16357;52.188;7.838;2023-03-03T16:18:22;16.63;;;10.43;;
29370;SDS011;16357;52.188;7.838;2023-03-03T16:23:59;17.42;;;10.80;;
29370;SDS011;16357;52.188;7.838;2023-03-03T16:26:58;20.50;;;11.07;;
29370;SDS011;16357;52.188;7.838;2023-03-03T16:29:37;18.95;;;11.05;;
29370;SDS011;16357;52.188;7.838;2023-03-03T16:32:19;19.88;;;11.55;;
29370;SDS011;16357;52.188;7.838;2023-03-03T16:38:09;18.55;;;11.73;;
29370;SDS011;16357;52.188;7.838;2023-03-03T16:40:54;22.70;;;11.82;;
29370;SDS011;16357;52.188;7.838;2023-03-03T16:49:07;22.00;;;11.82;;
29370;SDS011;16357;52.188;7.838;2023-03-03T16:52:06;18.77;;;12.20;;
29370;SDS011;16357;52.188;7.838;2023-03-03T17:12:05;18.85;;;12.10;;
29370;SDS011;16357;52.188;7.838;2023-03-03T17:18:01;13.32;;;8.23;;
29370;SDS011;16357;52.188;7.838;2023-03-03T17:20:47;14.32;;;7.78;;
29370;SDS011;16357;52.188;7.838;2023-03-03T17:26:17;8.02;;;4.88;;
29370;SDS011;16357;52.188;7.838;2023-03-03T17:29:09;7.82;;;4.53;;
29370;SDS011;16357;52.188;7.838;2023-03-03T17:44:59;7.90;;;3.63;;
29370;SDS011;16357;52.188;7.838;2023-03-03T17:47:35;7.18;;;3.97;;
29370;SDS011;16357;52.188;7.838;2023-03-03T17:50:36;6.82;;;3.75;;
29370;SDS011;16357;52.188;7.838;2023-03-03T17:58:23;6.35;;;3.85;;
29370;SDS011;16357;52.188;7.838;2023-03-03T18:09:50;7.65;;;3.88;;
29370;SDS011;16357;52.188;7.838;2023-03-03T18:12:42;6.72;;;3.50;;
29370;SDS011;16357;52.188;7.838;2023-03-03T18:18:01;6.95;;;2.90;;
29370;SDS011;16357;52.188;7.838;2023-03-03T18:20:41;5.55;;;3.08;;
29370;SDS011;16357;52.188;7.838;2023-03-03T18:26:28;3.95;;;2.78;;
29370;SDS011;16357;52.188;7.838;2023-03-03T18:34:26;7.65;;;3.17;;
29370;SDS011;16357;52.188;7.838;2023-03-03T18:36:57;3.65;;;3.00;;
29370;SDS011;16357;52.188;7.838;2023-03-03T18:42:35;8.63;;;2.60;;
29370;SDS011;16357;52.188;7.838;2023-03-03T18:45:11;6.22;;;3.70;;
29370;SDS011;16357;52.188;7.838;2023-03-03T18:48:08;7.47;;;3.83;;
29370;SDS011;16357;52.188;7.838;2023-03-03T18:50:37;5.60;;;3.22;;
29370;SDS011;16357;52.188;7.838;2023-03-03T18:55:42;5.00;;;2.90;;
29370;SDS011;16357;52.188;7.838;2023-03-03T19:00:48;5.95;;;3.00;;
29370;SDS011;16357;52.188;7.838;2023-03-03T19:05:52;4.43;;;3.20;;
29370;SDS011;16357;52.188;7.838;2023-03-03T19:08:43;5.53;;;3.33;;
29370;SDS011;16357;52.188;7.838;2023-03-03T19:16:42;4.88;;;3.40;;
29370;SDS011;16357;52.188;7.838;2023-03-03T19:19:10;7.45;;;3.60;;
29370;SDS011;16357;52.188;7.838;2023-03-03T19:21:37;7.03;;;3.65;;
29370;SDS011;16357;52.188;7.838;2023-03-03T19:32:33;4.95;;;3.35;;
29370;SDS011;16357;52.188;7.838;2023-03-03T19:38:17;7.63;;;3.17;;
29370;SDS011;16357;52.188;7.838;2023-03-03T19:40:59;7.53;;;3.73;;
29370;SDS011;16357;52.188;7.838;2023-03-03T19:48:52;6.45;;;4.45;;
29370;SDS011;16357;52.188;7.838;2023-03-03T19:51:22;10.63;;;4.10;;
29370;SDS011;16357;52.188;7.838;2023-03-03T19:54:12;6.22;;;3.92;;
29370;SDS011;16357;52.188;7.838;2023-03-03T19:56:52;6.05;;;4.05;;
29370;SDS011;16357;52.188;7.838;2023-03-03T19:59:36;5.60;;;3.88;;
29370;SDS011;16357;52.188;7.838;2023-03-03T20:05:06;7.53;;;4.13;;
29370;SDS011;16357;52.188;7.838;2023-03-03T20:07:54;8.25;;;4.20;;
29370;SDS011;16357;52.188;7.838;2023-03-03T20:16:22;8.13;;;4.25;;
29370;SDS011;16357;52.188;7.838;2023-03-03T20:21:59;10.23;;;4.90;;
29370;SDS011;16357;52.188;7.838;2023-03-03T20:24:37;13.27;;;4.57;;
29370;SDS011;16357;52.188;7.838;2023-03-03T20:27:35;12.57;;;5.05;;
29370;SDS011;16357;52.188;7.838;2023-03-03T20:33:30;17.02;;;5.22;;